»·PEaware :: QXE2072 KSEA-KGPI

QXE2072 :: KSEA-KGPI

FLIGHT INFORMATION

Flight Status: Arrived
Operator:
Horizon Air
More flights by this operator :: More flights under this callsign
Pilot: Henderson P. (1210)
Aircraft: DEHAVILLAND DASH 8 400
(DH8D)
More flights by this aircraft type
Origin: KSEA Seattle-Tacoma Intl
United States
Destination: KGPI Glacier Park Intl
United States
More flights between these airports :: More routes between these airports
Route: +SEA7 SEA ZADON ZELAK ZIRAN ZOOMR
File this flight plan on PilotEdge
Remarks:
Altitude:
(Current/Filed)
25,000ft
Speed:
(Current/Filed)
318kts
Departed: 01-Oct-20 03:44 PM
Arrived: 01-Oct-20 04:56 PM
Distance/Time
Traveled:
328nm/1:12
Distance/Time
To Go:
Arrived

Flight Plot

Page will automatically refresh every two minutes.

Flight plan parsing failed; only flown route is shown


Map Options




Map Legend


Flown Route
Filed Route
Departure Airport
Arrival Airport
Navaid (VOR, NDB)
Fix

Horizontal Profiles

Position Reports

Time Latitude Longitude Heading Altitude Ground
Speed
01-Oct-20 15:13 47.445076 -122.304765 90 440ft 0kts
01-Oct-20 15:14 47.445076 -122.304765 90 440ft 0kts
01-Oct-20 15:15 47.445076 -122.304765 90 440ft 0kts
01-Oct-20 15:16 47.445076 -122.304765 90 440ft 0kts
01-Oct-20 15:17 47.445076 -122.304765 90 440ft 0kts
01-Oct-20 15:18 47.445076 -122.304765 90 440ft 0kts
01-Oct-20 15:19 47.445076 -122.304765 90 440ft 0kts
01-Oct-20 15:20 47.445076 -122.304765 90 440ft 0kts
01-Oct-20 15:21 47.445076 -122.304765 90 440ft 0kts
01-Oct-20 15:22 47.445076 -122.304765 90 440ft 0kts
01-Oct-20 15:23 47.445076 -122.304765 90 440ft 0kts
01-Oct-20 15:24 47.445076 -122.304765 90 440ft 0kts
01-Oct-20 15:24 47.445076 -122.304765 90 440ft 0kts
01-Oct-20 15:26 47.445076 -122.304765 90 440ft 0kts
01-Oct-20 15:27 47.445076 -122.304765 90 440ft 0kts
01-Oct-20 15:27 47.445076 -122.304765 90 440ft 0kts
01-Oct-20 15:28 47.445076 -122.304765 90 440ft 0kts
01-Oct-20 15:30 47.445076 -122.304765 90 440ft 0kts
01-Oct-20 15:30 47.445076 -122.304765 90 440ft 0kts
01-Oct-20 15:31 47.445076 -122.304765 90 440ft 0kts
01-Oct-20 15:32 47.445076 -122.304765 90 440ft 0kts
01-Oct-20 15:33 47.445076 -122.304765 90 440ft 0kts
01-Oct-20 15:34 47.445076 -122.304765 90 440ft 0kts
01-Oct-20 15:35 47.445076 -122.304765 90 440ft 0kts
01-Oct-20 15:36 47.445071 -122.304995 80 440ft 2kts
01-Oct-20 15:37 47.444689 -122.305427 0 440ft 0kts
01-Oct-20 15:38 47.444689 -122.305427 0 440ft 0kts
01-Oct-20 15:39 47.446233 -122.306312 359 440ft 16kts
01-Oct-20 15:40 47.452085 -122.306258 0 440ft 22kts
01-Oct-20 15:41 47.458582 -122.306196 0 440ft 24kts
01-Oct-20 15:42 47.463609 -122.307488 231 440ft 15kts
01-Oct-20 15:43 47.434641 -122.308423 181 1509ft 154kts
01-Oct-20 15:44 47.388335 -122.305577 175 4133ft 195kts
01-Oct-20 15:45 47.328092 -122.302292 176 6309ft 235kts
01-Oct-20 15:46 47.267121 -122.276494 123 8549ft 252kts
01-Oct-20 15:47 47.283217 -122.181155 57 10347ft 268kts
01-Oct-20 15:48 47.323568 -122.087973 56 11661ft 277kts
01-Oct-20 15:49 47.365344 -121.991311 55 12919ft 284kts
01-Oct-20 15:50 47.408165 -121.892033 55 14071ft 290kts
01-Oct-20 15:51 47.452204 -121.790097 55 15116ft 296kts
01-Oct-20 15:52 47.497025 -121.686228 55 16057ft 302kts
01-Oct-20 15:53 47.542810 -121.580204 54 16913ft 307kts
01-Oct-20 15:54 47.559447 -121.457670 92 17779ft 312kts
01-Oct-20 15:55 47.556462 -121.329335 91 18785ft 309kts
01-Oct-20 15:56 47.554437 -121.202941 91 19784ft 302kts
01-Oct-20 15:57 47.552495 -121.084671 91 20737ft 298kts
01-Oct-20 15:58 47.550251 -120.962679 91 21729ft 297kts
01-Oct-20 15:59 47.547912 -120.840830 90 22725ft 293kts
01-Oct-20 16:00 47.545438 -120.719079 90 23732ft 288kts
01-Oct-20 16:01 47.542946 -120.599416 90 24737ft 281kts
01-Oct-20 16:02 47.540316 -120.481167 90 25224ft 299kts
01-Oct-20 16:03 47.536621 -120.352201 93 25235ft 329kts
01-Oct-20 16:04 47.529457 -120.211658 93 25233ft 348kts
01-Oct-20 16:05 47.522369 -120.064276 93 25231ft 360kts
01-Oct-20 16:06 47.515102 -119.914106 93 25231ft 367kts
01-Oct-20 16:07 47.506756 -119.761660 92 25219ft 372kts
01-Oct-20 16:08 47.500023 -119.608825 91 25220ft 375kts
01-Oct-20 16:09 47.491886 -119.453061 91 25223ft 376kts
01-Oct-20 16:10 47.483427 -119.297963 92 25225ft 378kts
01-Oct-20 16:11 47.474805 -119.140990 92 25231ft 378kts
01-Oct-20 16:12 47.465970 -118.984584 92 25234ft 379kts
01-Oct-20 16:13 47.457051 -118.829930 92 25236ft 379kts
01-Oct-20 16:14 47.447848 -118.673444 92 25240ft 380kts
01-Oct-20 16:15 47.438328 -118.516505 92 25245ft 380kts
01-Oct-20 16:16 47.428664 -118.359841 92 25251ft 380kts
01-Oct-20 16:17 47.447434 -118.212279 62 25260ft 365kts
01-Oct-20 16:18 47.482291 -118.072025 64 25268ft 366kts
01-Oct-20 16:19 47.514861 -117.931839 64 25272ft 366kts
01-Oct-20 16:20 47.547728 -117.791945 64 25274ft 365kts
01-Oct-20 16:21 47.580482 -117.652075 64 25275ft 365kts
01-Oct-20 16:22 47.612968 -117.512000 64 25282ft 365kts
01-Oct-20 16:23 47.645327 -117.371738 64 25277ft 366kts
01-Oct-20 16:24 47.677291 -117.232033 64 25269ft 364kts
01-Oct-20 16:25 47.709365 -117.091394 64 25270ft 364kts
01-Oct-20 16:26 47.741335 -116.949686 64 25280ft 365kts
01-Oct-20 16:27 47.773357 -116.807137 64 25284ft 365kts
01-Oct-20 16:28 47.805125 -116.664723 64 25285ft 365kts
01-Oct-20 16:29 47.837205 -116.520223 64 25292ft 364kts
01-Oct-20 16:30 47.868953 -116.375682 64 25302ft 364kts
01-Oct-20 16:31 47.899938 -116.234014 64 25312ft 363kts
01-Oct-20 16:32 47.931035 -116.090991 64 25322ft 363kts
01-Oct-20 16:33 47.962729 -115.944676 65 24192ft 381kts
01-Oct-20 16:34 47.995205 -115.793266 65 22308ft 386kts
01-Oct-20 16:35 48.028056 -115.639902 66 20406ft 388kts
01-Oct-20 16:36 48.060536 -115.485387 67 18427ft 395kts
01-Oct-20 16:37 48.093423 -115.328114 69 16275ft 388kts
01-Oct-20 16:38 48.123894 -115.180375 69 14423ft 366kts
01-Oct-20 16:39 48.153176 -115.038321 70 12715ft 351kts
01-Oct-20 16:40 48.179991 -114.907875 70 11200ft 339kts
01-Oct-20 16:41 48.199568 -114.811436 70 11029ft 301kts
01-Oct-20 16:42 48.222580 -114.696061 70 10997ft 284kts
01-Oct-20 16:43 48.229574 -114.589893 104 10653ft 252kts
01-Oct-20 16:44 48.212333 -114.491959 103 9332ft 239kts
01-Oct-20 16:45 48.197329 -114.399757 102 8082ft 212kts
01-Oct-20 16:46 48.226965 -114.341283 32 7129ft 170kts
01-Oct-20 16:47 48.264878 -114.303458 34 5920ft 179kts
01-Oct-20 16:48 48.310142 -114.255832 35 5044ft 196kts
01-Oct-20 16:49 48.355903 -114.245647 311 5002ft 189kts
01-Oct-20 16:50 48.356979 -114.309291 215 5002ft 180kts
01-Oct-20 16:51 48.316947 -114.351237 212 5002ft 170kts
01-Oct-20 16:52 48.285188 -114.324272 124 4702ft 131kts
01-Oct-20 16:53 48.287650 -114.279278 35 3481ft 123kts
01-Oct-20 16:54 48.310314 -114.255692 36 2977ft 57kts
01-Oct-20 16:55 48.311974 -114.252320 90 2977ft 3kts
01-Oct-20 16:56 48.311323 -114.252579 215 2977ft 8kts
01-Oct-20 16:57 48.308424 -114.254032 205 2977ft 8kts
01-Oct-20 16:58 48.307842 -114.253434 124 2976ft 0kts
01-Oct-20 16:59 48.307847 -114.253446 124 2976ft 0kts
01-Oct-20 17:00 48.307847 -114.253446 124 2976ft 0kts
01-Oct-20 17:01 48.307847 -114.253446 124 2976ft 0kts
01-Oct-20 17:02 48.307847 -114.253446 124 2976ft 0kts
01-Oct-20 17:03 48.307847 -114.253446 124 2976ft 0kts
01-Oct-20 17:05 48.307847 -114.253446 124 2976ft 0kts
01-Oct-20 17:06 48.307847 -114.253446 124 2976ft 0kts

Navigation Log

Ident Type
Flight plan parsing failed, navigation log unavailable